createdAt,value
2022-12-13T00:01:21.836Z,29.80
2022-12-13T00:03:49.995Z,33.57
2022-12-13T00:06:17.721Z,26.80
2022-12-13T00:08:45.769Z,33.13
2022-12-13T00:11:14.124Z,33.80
2022-12-13T00:13:43.065Z,30.27
2022-12-13T00:16:13.130Z,28.70
2022-12-13T00:18:42.898Z,27.77
2022-12-13T00:21:13.922Z,27.70
2022-12-13T00:23:42.012Z,30.97
2022-12-13T00:26:12.260Z,32.53
2022-12-13T00:28:40.187Z,27.37
2022-12-13T00:31:43.583Z,32.53
2022-12-13T00:33:58.292Z,27.67
2022-12-13T00:36:26.242Z,26.67
2022-12-13T00:39:02.027Z,28.10
2022-12-13T00:41:30.820Z,29.67
2022-12-13T00:43:59.146Z,30.20
2022-12-13T00:46:27.152Z,29.07
2022-12-13T00:48:56.420Z,29.60
2022-12-13T00:51:25.870Z,28.37
2022-12-13T00:53:54.346Z,29.23
2022-12-13T00:56:23.603Z,26.93
2022-12-13T00:58:52.347Z,29.07
2022-12-13T01:01:21.486Z,28.57
2022-12-13T01:03:49.876Z,26.40
2022-12-13T01:06:19.852Z,27.30
2022-12-13T01:08:49.074Z,29.83
2022-12-13T01:11:17.001Z,29.27
2022-12-13T01:13:45.282Z,31.27
2022-12-13T01:16:13.650Z,28.97
2022-12-13T01:18:42.113Z,28.63
2022-12-13T01:21:12.059Z,30.93
2022-12-13T01:23:40.527Z,31.90
2022-12-13T01:26:10.600Z,29.63
2022-12-13T01:28:38.725Z,27.47
2022-12-13T01:31:07.476Z,39.60
2022-12-13T01:33:35.317Z,36.10
2022-12-13T01:36:03.108Z,41.17
2022-12-13T01:38:31.253Z,37.53
2022-12-13T01:41:17.212Z,35.93
2022-12-13T01:43:56.164Z,33.77
2022-12-13T01:46:24.466Z,36.23
2022-12-13T01:48:55.712Z,39.47
2022-12-13T01:51:27.714Z,35.60
2022-12-13T01:53:55.715Z,32.50
2022-12-13T01:56:26.582Z,35.33
2022-12-13T01:58:55.630Z,34.80
2022-12-13T02:01:23.501Z,34.77
2022-12-13T02:03:51.775Z,33.97
2022-12-13T02:06:20.496Z,32.50
2022-12-13T02:08:48.177Z,29.77
2022-12-13T02:11:15.860Z,32.67
2022-12-13T02:13:43.632Z,31.03
2022-12-13T02:16:22.109Z,32.03
2022-12-13T02:18:58.844Z,30.33
2022-12-13T02:21:32.217Z,32.90
2022-12-13T02:24:36.225Z,33.00
2022-12-13T02:27:10.770Z,32.80
2022-12-13T02:30:08.339Z,33.03
2022-12-13T02:32:39.604Z,33.97
2022-12-13T02:35:10.636Z,31.87
2022-12-13T02:37:44.868Z,33.27
2022-12-13T02:40:16.678Z,29.50
2022-12-13T02:42:47.157Z,33.10
2022-12-13T02:45:20.521Z,32.10
2022-12-13T02:47:50.051Z,28.20
2022-12-13T02:50:18.287Z,27.80
2022-12-13T02:52:46.724Z,27.40
2022-12-13T02:55:16.293Z,29.33
2022-12-13T02:57:45.126Z,30.07
2022-12-13T03:00:16.122Z,31.53
2022-12-13T03:02:47.617Z,31.37
2022-12-13T03:05:50.088Z,28.63
2022-12-13T03:08:21.985Z,28.63
2022-12-13T03:10:54.932Z,31.90
2022-12-13T03:13:38.158Z,29.87
2022-12-13T03:16:23.454Z,30.23
2022-12-13T03:18:51.699Z,28.60
2022-12-13T03:21:21.138Z,28.80
2022-12-13T03:23:48.805Z,31.40
2022-12-13T03:26:18.459Z,28.60
2022-12-13T03:28:46.189Z,30.50
2022-12-13T03:31:14.527Z,29.97
2022-12-13T03:33:42.456Z,27.37
2022-12-13T03:36:10.605Z,26.03
2022-12-13T03:38:39.958Z,25.93
2022-12-13T03:41:09.748Z,24.90
2022-12-13T03:43:37.425Z,25.40
2022-12-13T03:46:05.526Z,27.20
2022-12-13T03:48:33.497Z,30.67
2022-12-13T03:51:01.762Z,25.97
2022-12-13T03:53:33.521Z,28.20
2022-12-13T03:56:04.262Z,27.53
2022-12-13T03:58:35.363Z,25.63
2022-12-13T04:01:05.351Z,31.87
2022-12-13T04:03:33.186Z,30.63
2022-12-13T04:06:01.564Z,22.93
2022-12-13T04:08:29.699Z,29.47
2022-12-13T04:10:57.612Z,24.77
2022-12-13T04:13:34.652Z,28.80
2022-12-13T04:16:03.207Z,25.20
2022-12-13T04:18:31.146Z,27.37
2022-12-13T04:20:59.216Z,29.93
2022-12-13T04:23:26.874Z,28.33
2022-12-13T04:25:54.560Z,27.90
2022-12-13T04:28:23.206Z,25.97
2022-12-13T04:30:54.085Z,25.97
2022-12-13T04:33:22.252Z,27.90
2022-12-13T04:35:50.400Z,27.17
2022-12-13T04:38:18.271Z,25.60
2022-12-13T04:40:46.122Z,24.03
2022-12-13T04:43:14.470Z,26.20
2022-12-13T04:45:42.595Z,26.23
2022-12-13T04:48:11.985Z,24.30
2022-12-13T04:50:40.107Z,24.33
2022-12-13T04:53:07.973Z,26.10
2022-12-13T04:55:36.266Z,26.53
2022-12-13T04:58:04.213Z,27.40
2022-12-13T05:00:32.108Z,28.20
2022-12-13T05:03:00.422Z,27.90
2022-12-13T05:05:29.598Z,26.03
2022-12-13T05:07:57.348Z,25.97
2022-12-13T05:10:35.707Z,24.10
2022-12-13T05:13:05.727Z,26.30
2022-12-13T05:15:33.904Z,25.33
2022-12-13T05:18:09.614Z,24.23
2022-12-13T05:20:40.120Z,25.00
2022-12-13T05:23:07.846Z,25.93
2022-12-13T05:25:37.407Z,26.47
2022-12-13T05:28:09.014Z,24.97
2022-12-13T05:30:54.297Z,25.30
2022-12-13T05:33:22.007Z,27.13
2022-12-13T05:35:55.075Z,24.63
2022-12-13T05:38:27.255Z,26.80
2022-12-13T05:40:55.613Z,25.40
2022-12-13T05:43:24.264Z,25.80
2022-12-13T05:46:12.089Z,26.43
2022-12-13T05:48:39.918Z,23.93
2022-12-13T05:51:10.681Z,25.40
2022-12-13T05:53:39.421Z,23.00
2022-12-13T05:56:07.936Z,22.70
2022-12-13T05:58:36.401Z,26.17
2022-12-13T06:01:08.877Z,24.93
2022-12-13T06:03:36.853Z,25.93
2022-12-13T06:06:05.209Z,22.73
2022-12-13T06:08:34.498Z,24.17
2022-12-13T06:11:11.490Z,26.53
2022-12-13T06:13:42.847Z,26.50
2022-12-13T06:16:23.429Z,27.40
2022-12-13T06:18:56.175Z,25.60
2022-12-13T06:21:39.183Z,24.53
2022-12-13T06:24:13.064Z,28.93
2022-12-13T06:26:41.328Z,28.43
2022-12-13T06:29:10.379Z,26.77
2022-12-13T06:31:38.412Z,26.67
2022-12-13T06:34:14.295Z,23.47
2022-12-13T06:36:43.113Z,22.20
2022-12-13T06:39:12.308Z,27.57
2022-12-13T06:41:40.671Z,23.83
2022-12-13T06:44:08.947Z,25.20
2022-12-13T06:46:36.948Z,23.93
2022-12-13T06:49:08.734Z,25.90
2022-12-13T06:51:36.575Z,25.07
2022-12-13T06:54:04.573Z,25.83
2022-12-13T06:56:34.632Z,23.50
2022-12-13T06:59:02.822Z,25.90
2022-12-13T07:01:37.720Z,22.20
2022-12-13T07:04:30.288Z,23.73
2022-12-13T07:06:54.712Z,20.73
2022-12-13T07:09:22.487Z,25.20
2022-12-13T07:11:52.600Z,23.60
2022-12-13T07:14:20.553Z,23.90
2022-12-13T07:16:48.756Z,22.37
2022-12-13T07:19:23.720Z,25.47
2022-12-13T07:21:52.660Z,22.80
2022-12-13T07:24:20.689Z,23.43
2022-12-13T07:26:48.692Z,22.93
2022-12-13T07:29:22.719Z,20.07
2022-12-13T07:31:50.888Z,21.63
2022-12-13T07:34:18.939Z,23.20
2022-12-13T07:36:46.822Z,21.00
2022-12-13T07:39:14.559Z,22.87
2022-12-13T07:41:42.783Z,22.50
2022-12-13T07:44:10.606Z,25.57
2022-12-13T07:46:40.338Z,22.60
2022-12-13T07:49:08.308Z,21.27
2022-12-13T07:51:36.755Z,23.80
2022-12-13T07:54:08.311Z,23.37
2022-12-13T07:56:36.458Z,24.47
2022-12-13T07:59:04.418Z,22.67
2022-12-13T08:01:34.706Z,25.23
2022-12-13T08:04:04.959Z,24.67
2022-12-13T08:06:36.326Z,23.80
2022-12-13T08:09:04.168Z,24.77
2022-12-13T08:11:32.369Z,24.03
2022-12-13T08:14:00.036Z,27.37
2022-12-13T08:16:29.760Z,25.80
2022-12-13T08:19:02.563Z,28.50
2022-12-13T08:21:53.883Z,26.73
2022-12-13T08:24:22.186Z,27.40
2022-12-13T08:26:50.627Z,25.40
2022-12-13T08:29:22.358Z,29.50
2022-12-13T08:31:52.120Z,25.20
2022-12-13T08:34:20.132Z,28.53
2022-12-13T08:36:49.401Z,26.90
2022-12-13T08:39:17.237Z,29.93
2022-12-13T08:41:45.308Z,26.80
2022-12-13T08:44:13.216Z,27.30
2022-12-13T08:46:41.558Z,26.43
2022-12-13T08:49:09.350Z,30.43
2022-12-13T08:51:37.267Z,26.13
2022-12-13T08:54:10.452Z,25.60
2022-12-13T08:56:39.464Z,26.17
2022-12-13T08:59:11.432Z,27.20
2022-12-13T09:01:39.219Z,26.77
2022-12-13T09:04:07.012Z,23.67
2022-12-13T09:06:35.401Z,26.30
2022-12-13T09:09:03.717Z,25.07
2022-12-13T09:11:39.935Z,25.13
2022-12-13T09:14:08.175Z,27.40
2022-12-13T09:16:42.477Z,25.23
2022-12-13T09:19:25.505Z,25.80
2022-12-13T09:22:02.756Z,27.40
2022-12-13T09:24:36.304Z,23.30
2022-12-13T09:27:09.916Z,28.53
2022-12-13T09:29:38.242Z,24.83
2022-12-13T09:32:07.049Z,25.27
2022-12-13T09:34:35.030Z,25.60
2022-12-13T09:37:03.401Z,24.23
2022-12-13T09:39:31.366Z,25.23
2022-12-13T09:42:01.051Z,24.33
2022-12-13T09:44:44.161Z,22.80
2022-12-13T09:47:23.308Z,28.07
2022-12-13T09:49:53.740Z,21.73
2022-12-13T09:52:23.432Z,25.93
2022-12-13T09:54:51.628Z,24.43
2022-12-13T09:57:31.239Z,29.77
2022-12-13T10:00:02.627Z,23.60
2022-12-13T10:02:32.051Z,21.60
2022-12-13T10:05:02.102Z,25.07
2022-12-13T10:07:30.775Z,21.13
2022-12-13T10:10:01.883Z,26.50
2022-12-13T10:12:29.723Z,25.83
2022-12-13T10:14:59.510Z,23.63
2022-12-13T10:17:30.191Z,23.80
2022-12-13T10:20:06.987Z,25.53
2022-12-13T10:22:35.104Z,24.23
2022-12-13T10:25:03.949Z,24.67
2022-12-13T10:27:35.199Z,25.70
2022-12-13T10:30:06.163Z,22.40
2022-12-13T10:32:43.418Z,24.97
2022-12-13T10:35:25.564Z,27.20
2022-12-13T10:37:54.073Z,23.07
2022-12-13T10:40:32.111Z,24.50
2022-12-13T10:43:14.607Z,25.10
2022-12-13T10:45:43.087Z,28.13
2022-12-13T10:48:21.075Z,22.03
2022-12-13T10:50:58.401Z,27.63
2022-12-13T10:53:27.617Z,30.40
2022-12-13T10:55:55.888Z,22.97
2022-12-13T10:58:24.153Z,22.83
2022-12-13T11:00:52.026Z,23.70
2022-12-13T11:03:32.496Z,28.30
2022-12-13T11:06:04.916Z,29.00
2022-12-13T11:08:32.809Z,23.50
2022-12-13T11:11:01.348Z,24.63
2022-12-13T11:13:37.142Z,28.13
2022-12-13T11:16:05.774Z,25.33
2022-12-13T11:18:37.484Z,24.43
2022-12-13T11:21:05.273Z,22.73
2022-12-13T11:23:34.227Z,25.90
2022-12-13T11:26:03.318Z,27.60
2022-12-13T11:28:41.002Z,24.53
2022-12-13T11:31:12.158Z,26.67
2022-12-13T11:33:47.613Z,31.20
2022-12-13T11:36:22.336Z,24.43
2022-12-13T11:38:58.199Z,27.73
2022-12-13T11:41:32.235Z,24.23
2022-12-13T11:44:02.757Z,26.13
2022-12-13T11:46:36.835Z,25.10
2022-12-13T11:49:11.460Z,24.87
2022-12-13T11:51:41.886Z,27.77
2022-12-13T11:54:12.077Z,24.60
2022-12-13T11:56:42.861Z,27.47
2022-12-13T11:59:22.458Z,26.13
2022-12-13T12:01:55.612Z,26.97
2022-12-13T12:04:28.463Z,31.13
2022-12-13T12:07:08.294Z,27.20
2022-12-13T12:09:51.282Z,26.50
2022-12-13T12:12:22.409Z,28.00
2022-12-13T12:14:53.836Z,24.33
2022-12-13T12:17:24.662Z,25.40
2022-12-13T12:19:54.653Z,28.43
2022-12-13T12:22:30.732Z,26.33
2022-12-13T12:25:04.934Z,28.57
2022-12-13T12:27:39.282Z,26.23
2022-12-13T12:30:22.864Z,27.50
2022-12-13T12:32:54.887Z,27.03
2022-12-13T12:35:51.883Z,26.20
2022-12-13T12:38:45.514Z,27.97
2022-12-13T12:41:29.538Z,28.67
2022-12-13T12:44:01.919Z,27.73
2022-12-13T12:47:01.607Z,28.33
2022-12-13T12:49:55.256Z,28.93
2022-12-13T12:52:28.960Z,33.30
2022-12-13T12:55:03.422Z,27.37
2022-12-13T12:57:39.844Z,28.27
2022-12-13T13:00:12.327Z,28.03
2022-12-13T13:02:42.597Z,30.77
2022-12-13T13:05:17.146Z,31.10
2022-12-13T13:07:51.448Z,30.00
2022-12-13T13:10:26.776Z,27.67
2022-12-13T13:13:12.421Z,27.87
2022-12-13T13:15:58.164Z,27.17
2022-12-13T13:18:49.373Z,29.40
2022-12-13T13:21:34.001Z,30.00
2022-12-13T13:24:19.653Z,30.10
2022-12-13T13:26:48.164Z,30.20
2022-12-13T13:29:32.101Z,32.90
2022-12-13T13:32:02.115Z,29.60
2022-12-13T13:34:31.288Z,32.23
2022-12-13T13:36:59.333Z,31.47
2022-12-13T13:40:00.942Z,32.13
2022-12-13T13:42:29.369Z,32.43
2022-12-13T13:45:22.673Z,29.70
2022-12-13T13:48:14.662Z,32.60
2022-12-13T13:51:28.429Z,28.30
2022-12-13T13:54:19.501Z,31.43
2022-12-13T13:58:00.393Z,33.90
2022-12-13T14:00:18.795Z,33.30
2022-12-13T14:03:29.348Z,34.53
2022-12-13T14:06:24.840Z,30.43
2022-12-13T14:09:15.720Z,32.40
2022-12-13T14:12:09.577Z,34.37
2022-12-13T14:15:01.707Z,30.27
2022-12-13T14:18:01.579Z,33.70
2022-12-13T14:20:38.327Z,30.50
2022-12-13T14:23:09.003Z,32.27
2022-12-13T14:26:03.359Z,30.53
2022-12-13T14:28:36.875Z,37.00
2022-12-13T14:31:06.004Z,39.43
2022-12-13T14:33:33.776Z,39.73
2022-12-13T14:36:03.563Z,41.50
2022-12-13T14:38:32.853Z,42.30
2022-12-13T14:41:01.703Z,39.70
2022-12-13T14:43:30.956Z,39.97
2022-12-13T14:45:59.902Z,41.17
2022-12-13T14:48:37.492Z,44.73
2022-12-13T14:51:05.735Z,40.67
2022-12-13T14:53:38.176Z,43.50
2022-12-13T14:56:07.598Z,44.37
2022-12-13T14:58:37.484Z,49.60
2022-12-13T15:01:05.600Z,45.00
2022-12-13T15:03:35.804Z,49.97
2022-12-13T15:06:04.149Z,43.50
2022-12-13T15:08:31.844Z,50.93
2022-12-13T15:11:02.167Z,43.50
2022-12-13T15:13:34.837Z,44.93
2022-12-13T15:16:10.843Z,51.73
2022-12-13T15:18:40.660Z,43.67
2022-12-13T15:21:20.841Z,44.73
2022-12-13T15:23:49.882Z,47.40
2022-12-13T15:26:28.290Z,53.30
2022-12-13T15:28:58.416Z,47.30
2022-12-13T15:34:52.673Z,44.77
2022-12-13T15:37:28.466Z,45.60
2022-12-13T15:40:00.386Z,46.77
2022-12-13T15:42:30.869Z,44.00
2022-12-13T15:45:00.146Z,43.33
2022-12-13T15:47:29.259Z,45.10
2022-12-13T15:50:01.034Z,44.13
2022-12-13T15:52:34.648Z,43.10
2022-12-13T15:55:03.966Z,45.30
2022-12-13T15:57:32.420Z,41.17
2022-12-13T16:00:07.532Z,47.17
2022-12-13T16:02:35.995Z,45.50
2022-12-13T16:05:10.228Z,42.83
2022-12-13T16:07:40.593Z,44.53
2022-12-13T16:10:09.279Z,43.03
2022-12-13T16:12:40.273Z,49.33
2022-12-13T16:15:28.532Z,45.33
2022-12-13T16:18:06.334Z,44.97
2022-12-13T16:20:35.884Z,43.27
2022-12-13T16:23:08.991Z,44.73
2022-12-13T16:25:37.005Z,41.40
2022-12-13T16:28:05.298Z,48.50
2022-12-13T16:30:56.768Z,45.07
2022-12-13T16:33:27.313Z,40.67
2022-12-13T16:35:57.074Z,47.03
2022-12-13T16:38:27.402Z,48.23
2022-12-13T16:40:56.085Z,50.53
2022-12-13T16:43:32.905Z,38.63
2022-12-13T16:47:16.937Z,46.97
2022-12-13T16:48:52.005Z,44.40
2022-12-13T16:51:21.405Z,49.53
2022-12-13T16:53:52.871Z,47.07
2022-12-13T16:56:22.216Z,45.17
2022-12-13T16:58:50.844Z,44.77
2022-12-13T17:01:21.237Z,45.23
2022-12-13T17:03:49.109Z,42.73
2022-12-13T17:06:19.296Z,43.97
2022-12-13T17:08:48.732Z,46.23
2022-12-13T17:11:18.536Z,43.40
2022-12-13T17:13:49.427Z,39.53
2022-12-13T17:16:17.941Z,45.70
2022-12-13T17:18:45.845Z,44.70
2022-12-13T17:21:14.385Z,43.37
2022-12-13T17:23:42.143Z,43.73
2022-12-13T17:26:12.235Z,43.20
2022-12-13T17:28:40.165Z,49.07
2022-12-13T17:31:08.674Z,41.40
2022-12-13T17:33:37.343Z,46.47
2022-12-13T17:36:06.022Z,39.03
2022-12-13T17:38:33.860Z,54.03
2022-12-13T17:41:02.203Z,46.40
2022-12-13T17:43:35.624Z,45.53
2022-12-13T17:46:04.957Z,51.53
2022-12-13T17:48:39.569Z,44.27
2022-12-13T17:51:08.814Z,41.50
2022-12-13T17:53:36.879Z,43.77
2022-12-13T17:56:07.029Z,47.47
2022-12-13T17:58:36.292Z,45.63
2022-12-13T18:01:14.503Z,45.17
2022-12-13T18:03:42.654Z,45.73
2022-12-13T18:06:10.660Z,46.10
2022-12-13T18:08:39.222Z,46.93
2022-12-13T18:13:57.421Z,50.20
2022-12-13T18:16:32.039Z,46.67
2022-12-13T18:19:05.002Z,40.87
2022-12-13T18:21:32.983Z,40.73
2022-12-13T18:24:00.988Z,46.93
2022-12-13T18:26:28.683Z,43.50
2022-12-13T18:28:58.142Z,43.23
2022-12-13T18:31:26.373Z,42.27
2022-12-13T18:33:54.470Z,42.67
2022-12-13T18:36:23.134Z,43.00
2022-12-13T18:38:51.293Z,47.30
2022-12-13T18:41:20.219Z,54.43
2022-12-13T18:43:48.491Z,47.40
2022-12-13T18:46:17.954Z,45.70
2022-12-13T18:48:46.872Z,45.57
2022-12-13T18:51:14.700Z,44.10
2022-12-13T18:53:42.576Z,41.40
2022-12-13T18:56:17.882Z,43.60
2022-12-13T18:58:46.421Z,45.70
2022-12-13T19:01:15.581Z,43.03
2022-12-13T19:03:46.844Z,43.17
2022-12-13T19:06:16.527Z,41.87
2022-12-13T19:08:44.429Z,43.87
2022-12-13T19:11:12.413Z,47.33
2022-12-13T19:13:40.459Z,41.00
2022-12-13T19:16:09.458Z,43.87
2022-12-13T19:18:37.748Z,42.13
2022-12-13T19:21:08.960Z,47.90
2022-12-13T19:23:36.966Z,43.53
2022-12-13T19:26:08.232Z,46.27
2022-12-13T19:28:36.340Z,41.23
2022-12-13T19:31:05.595Z,46.47
2022-12-13T19:33:33.716Z,47.23
2022-12-13T19:36:01.719Z,53.63
2022-12-13T19:38:31.067Z,44.60
2022-12-13T19:40:58.969Z,41.57
2022-12-13T19:43:27.531Z,41.50
2022-12-13T19:45:55.637Z,41.63
2022-12-13T19:48:23.648Z,40.43
2022-12-13T19:50:51.697Z,46.20
2022-12-13T19:53:19.436Z,44.30
2022-12-13T19:55:48.771Z,42.00
2022-12-13T19:58:16.712Z,46.40
2022-12-13T20:00:44.644Z,40.37
2022-12-13T20:03:12.846Z,41.27
2022-12-13T20:05:45.502Z,47.00
2022-12-13T20:08:13.818Z,38.20
2022-12-13T20:10:41.778Z,42.43
2022-12-13T20:13:11.218Z,42.07
2022-12-13T20:15:39.876Z,44.87
2022-12-13T20:18:07.990Z,39.57
2022-12-13T20:21:02.417Z,44.83
2022-12-13T20:23:24.275Z,39.60
2022-12-13T20:26:01.124Z,41.17
2022-12-13T20:28:30.540Z,44.90
2022-12-13T20:31:07.339Z,44.63
2022-12-13T20:33:35.431Z,39.50
2022-12-13T20:36:27.631Z,44.30
2022-12-13T20:38:53.490Z,38.70
2022-12-13T20:41:21.694Z,43.50
2022-12-13T20:43:53.754Z,36.37
2022-12-13T20:46:21.826Z,45.00
2022-12-13T20:48:51.403Z,43.40
2022-12-13T20:51:20.719Z,36.10
2022-12-13T20:53:49.542Z,38.60
2022-12-13T20:56:18.419Z,41.30
2022-12-13T20:58:46.446Z,37.87
2022-12-13T21:01:20.007Z,39.53
2022-12-13T21:03:48.188Z,39.23
2022-12-13T21:06:16.116Z,40.93
2022-12-13T21:08:53.103Z,40.80
2022-12-13T21:11:27.759Z,39.57
2022-12-13T21:14:01.163Z,39.73
2022-12-13T21:16:37.155Z,41.50
2022-12-13T21:19:05.056Z,37.80
2022-12-13T21:21:32.968Z,39.57
2022-12-13T21:24:00.804Z,37.37
2022-12-13T21:26:34.911Z,40.60
2022-12-13T21:29:04.308Z,36.87
2022-12-13T21:31:32.502Z,39.63
2022-12-13T21:34:02.720Z,40.10
2022-12-13T21:36:31.908Z,41.77
2022-12-13T21:39:00.610Z,40.13
2022-12-13T21:41:28.691Z,38.63
2022-12-13T21:43:56.475Z,36.23
2022-12-13T21:46:31.319Z,43.97
2022-12-13T21:49:14.545Z,39.47
2022-12-13T21:51:47.577Z,40.80
2022-12-13T21:54:16.041Z,41.00
2022-12-13T21:57:02.015Z,40.90
2022-12-13T21:59:29.722Z,39.00
2022-12-13T22:02:15.117Z,42.23
2022-12-13T22:04:45.051Z,41.13
2022-12-13T22:07:13.912Z,39.27
2022-12-13T22:09:41.890Z,38.30
2022-12-13T22:12:10.424Z,38.60
2022-12-13T22:14:38.417Z,43.57
2022-12-13T22:17:06.385Z,35.93
2022-12-13T22:19:34.465Z,40.37
2022-12-13T22:22:03.828Z,42.07
2022-12-13T22:24:32.132Z,40.00
2022-12-13T22:27:00.075Z,41.60
2022-12-13T22:29:28.232Z,39.20
2022-12-13T22:31:56.180Z,37.57
2022-12-13T22:34:24.042Z,42.30
2022-12-13T22:36:51.765Z,35.10
2022-12-13T22:39:21.851Z,37.10
2022-12-13T22:41:50.142Z,39.17
2022-12-13T22:44:18.683Z,38.37
2022-12-13T22:46:46.605Z,37.77
2022-12-13T22:49:14.382Z,36.67
2022-12-13T22:51:42.254Z,37.57
2022-12-13T22:54:10.359Z,37.50
2022-12-13T22:56:39.541Z,36.37
2022-12-13T22:59:08.217Z,35.07
2022-12-13T23:01:37.310Z,39.43
2022-12-13T23:04:05.909Z,33.43
2022-12-13T23:06:34.340Z,36.17
2022-12-13T23:09:02.758Z,35.43
2022-12-13T23:11:48.465Z,31.53
2022-12-13T23:14:18.731Z,36.23
2022-12-13T23:16:46.447Z,37.17
2022-12-13T23:19:40.822Z,34.43
2022-12-13T23:22:06.271Z,37.23
2022-12-13T23:24:34.096Z,34.87
2022-12-13T23:27:01.896Z,34.20
2022-12-13T23:29:31.780Z,32.37
2022-12-13T23:31:59.725Z,32.33
2022-12-13T23:34:27.599Z,36.17
2022-12-13T23:36:55.600Z,35.10
2022-12-13T23:39:23.279Z,32.03
2022-12-13T23:41:51.040Z,34.37
2022-12-13T23:44:18.922Z,32.43
2022-12-13T23:46:49.094Z,35.63
2022-12-13T23:49:17.102Z,35.13
2022-12-13T23:51:45.185Z,33.67
2022-12-13T23:54:16.372Z,34.90
2022-12-13T23:56:44.320Z,33.80
2022-12-13T23:59:11.982Z,35.43
